• Join FlightAware (Why Join?)
  • Login
  • US Flag 
02:01PM EDT


 

Airport Tracker/Info


-or-


 

Live Flight TrackerFlight Track Log ✈ DAL55 ✈ 08-May-2013 ✈ DNMM / LOS - KATL

Flight Track Log - Related Links

Times and Time Zones

All times are in EDT time to prevent confusion due to time zone crossing. See the DAL55 flight status page for this flight to view local times or setup timezone preferences in your user account.

Time Position Orientation Groundspeed Altitude Reporting Facility
EDT Latitude Longitude Course Direction KTS MPH feet Rate Location/Type
04:44PM 6.6122 3.2119 288° West  Level FlightAware Approximate
04:45PM 6.6470 3.1026 288° West  Level FlightAware Approximate
04:46PM 6.6817 2.9933 288° West  Level FlightAware Approximate
04:47PM 6.7165 2.8839 288° West  Level FlightAware Approximate
04:48PM 6.7512 2.7746 288° West  Level FlightAware Approximate
04:49PM 6.7859 2.6652 288° West  Level FlightAware Approximate
04:50PM 6.8205 2.5559 288° West  Level FlightAware Approximate
04:51PM 6.8552 2.4465 288° West  Level FlightAware Approximate
04:52PM 6.8898 2.3370 288° West  Level FlightAware Approximate
04:53PM 6.9244 2.2276 288° West  Level FlightAware Approximate
04:54PM 6.9590 2.1182 288° West  Level FlightAware Approximate
04:55PM 6.9935 2.0087 288° West  Level FlightAware Approximate
04:56PM 7.0280 1.8993 288° West  Level FlightAware Approximate
04:57PM 7.0625 1.7898 288° West  Level FlightAware Approximate
04:58PM 7.1248 1.6936 309° West  Level Estimated
04:59PM 7.1938 1.6021 307° West  Level FlightAware Approximate
05:00PM 7.2628 1.5106 307° West  Level FlightAware Approximate
05:01PM 7.3317 1.4190 307° West  Level FlightAware Approximate
05:02PM 7.4006 1.3275 307° West  Level FlightAware Approximate
05:03PM 7.4694 1.2358 307° West  Level FlightAware Approximate
05:04PM 7.5383 1.1442 307° West  Level FlightAware Approximate
05:05PM 7.6072 1.0525 307° West  Level FlightAware Approximate
05:06PM 7.6760 0.9608 307° West  Level FlightAware Approximate
05:07PM 7.7409 0.8743 307° West  Level FlightAware Approximate
05:08PM 7.8058 0.7877 307° West  Level FlightAware Approximate
05:09PM 7.8707 0.7012 307° West  Level FlightAware Approximate
05:10PM 7.9356 0.6145 307° West  Level FlightAware Approximate
05:11PM 8.0004 0.5279 307° West  Level FlightAware Approximate
05:12PM 8.0680 0.4375 307° West  Level FlightAware Approximate
05:13PM 8.1356 0.3470 307° West  Level FlightAware Approximate
05:14PM 8.2032 0.2566 307° West  Level FlightAware Approximate
05:15PM 8.2708 0.1660 307° West  Level FlightAware Approximate
05:16PM 8.3383 0.0755 307° West  Level FlightAware Approximate
05:17PM 8.4059 -0.0151 307° West  Level FlightAware Approximate
05:18PM 8.4734 -0.1057 307° West  Level FlightAware Approximate
05:19PM 8.5409 -0.1963 307° West  Level FlightAware Approximate
05:20PM 8.6083 -0.2870 307° West  Level FlightAware Approximate
05:21PM 8.6758 -0.3777 307° West  Level FlightAware Approximate
05:22PM 8.7432 -0.4685 307° West  Level FlightAware Approximate
05:23PM 8.8106 -0.5592 307° West  Level FlightAware Approximate
05:24PM 8.8780 -0.6500 307° West  Level FlightAware Approximate
05:25PM 8.9454 -0.7409 307° West  Level FlightAware Approximate
05:26PM 9.0127 -0.8317 307° West  Level FlightAware Approximate
05:27PM 9.0800 -0.9226 307° West  Level FlightAware Approximate
05:28PM 9.1473 -1.0136 307° West  Level FlightAware Approximate
05:29PM 9.2146 -1.1045 307° West  Level FlightAware Approximate
05:30PM 9.2818 -1.1955 307° West  Level FlightAware Approximate
05:31PM 9.3490 -1.2866 307° West  Level FlightAware Approximate
05:32PM 9.4163 -1.3777 307° West  Level FlightAware Approximate
05:33PM 9.4834 -1.4688 307° West  Level FlightAware Approximate
05:34PM 9.5506 -1.5599 307° West  Level FlightAware Approximate
05:35PM 9.6177 -1.6511 307° West  Level FlightAware Approximate
05:36PM 9.6848 -1.7423 307° West  Level FlightAware Approximate
05:37PM 9.7469 -1.8267 307° West  Level FlightAware Approximate
05:38PM 9.8089 -1.9111 307° West  Level FlightAware Approximate
05:39PM 9.8709 -1.9956 307° West  Level FlightAware Approximate
05:40PM 9.9328 -2.0801 307° West  Level FlightAware Approximate
05:41PM 9.9948 -2.1646 307° West  Level FlightAware Approximate
05:42PM 10.0567 -2.2491 307° West  Level FlightAware Approximate
05:43PM 10.1186 -2.3337 307° West  Level FlightAware Approximate
05:44PM 10.1788 -2.4160 307° West  Level FlightAware Approximate
05:45PM 10.2390 -2.4984 307° West  Level FlightAware Approximate
05:46PM 10.2992 -2.5808 307° West  Level FlightAware Approximate
05:47PM 10.3594 -2.6632 307° West  Level FlightAware Approximate
05:48PM 10.4195 -2.7456 307° West  Level FlightAware Approximate
05:49PM 10.4796 -2.8281 307° West  Level FlightAware Approximate
05:50PM 10.5396 -2.9106 307° West  Level FlightAware Approximate
05:51PM 10.5997 -2.9931 307° West  Level FlightAware Approximate
05:52PM 10.6597 -3.0757 307° West  Level FlightAware Approximate
05:53PM 10.7198 -3.1583 306° West  Level FlightAware Approximate
05:54PM 10.7798 -3.2409 306° West  Level FlightAware Approximate
05:55PM 10.8467 -3.3332 306° West  Level FlightAware Approximate
05:56PM 10.9136 -3.4255 306° West  Level FlightAware Approximate
05:57PM 10.9805 -3.5178 306° West  Level FlightAware Approximate
05:58PM 11.0473 -3.6102 306° West  Level FlightAware Approximate
05:59PM 11.1141 -3.7026 306° West  Level FlightAware Approximate
06:00PM 11.1809 -3.7951 306° West  Level FlightAware Approximate
06:01PM 11.2477 -3.8876 306° West  Level FlightAware Approximate
06:02PM 11.3144 -3.9801 306° West  Level FlightAware Approximate
06:03PM 11.3811 -4.0727 306° West  Level FlightAware Approximate
06:04PM 11.4491 -4.1672 306° West  Level FlightAware Approximate
06:05PM 11.5171 -4.2618 306° West  Level FlightAware Approximate
06:06PM 11.5851 -4.3564 306° West  Level FlightAware Approximate
06:07PM 11.6530 -4.4510 306° West  Level FlightAware Approximate
06:08PM 11.7209 -4.5457 306° West  Level FlightAware Approximate
06:09PM 11.7887 -4.6404 306° West  Level FlightAware Approximate
06:10PM 11.8566 -4.7352 306° West  Level FlightAware Approximate
06:11PM 11.9244 -4.8300 306° West  Level FlightAware Approximate
06:12PM 11.9922 -4.9249 306° West  Level FlightAware Approximate
06:13PM 12.0599 -5.0198 306° West  Level FlightAware Approximate
06:14PM 12.1276 -5.1148 306° West  Level FlightAware Approximate
06:15PM 12.1953 -5.2098 306° West  Level FlightAware Approximate
06:16PM 12.2629 -5.3049 306° West  Level FlightAware Approximate
06:17PM 12.3305 -5.4000 306° West  Level FlightAware Approximate
06:18PM 12.3981 -5.4952 306° West  Level FlightAware Approximate
06:19PM 12.4656 -5.5904 306° West  Level FlightAware Approximate
06:20PM 12.5331 -5.6857 306° West  Level FlightAware Approximate
06:21PM 12.6006 -5.7810 306° West  Level FlightAware Approximate
06:22PM 12.6680 -5.8763 306° West  Level FlightAware Approximate
06:23PM 12.7354 -5.9717 306° West  Level FlightAware Approximate
06:24PM 12.8028 -6.0672 306° West  Level FlightAware Approximate
06:25PM 12.8702 -6.1627 306° West  Level FlightAware Approximate
06:26PM 12.9375 -6.2583 306° West  Level FlightAware Approximate
06:27PM 13.0047 -6.3539 306° West  Level FlightAware Approximate
06:28PM 13.0720 -6.4496 306° West  Level FlightAware Approximate
06:29PM 13.1392 -6.5453 306° West  Level FlightAware Approximate
06:30PM 13.2063 -6.6411 306° West  Level FlightAware Approximate
06:31PM 13.2734 -6.7369 306° West  Level FlightAware Approximate
06:32PM 13.3405 -6.8328 306° West  Level FlightAware Approximate
06:33PM 13.4076 -6.9287 306° West  Level FlightAware Approximate
06:34PM 13.4747 -7.0248 306° West  Level FlightAware Approximate
06:35PM 13.5418 -7.1210 306° West  Level FlightAware Approximate
06:36PM 13.6088 -7.2172 306° West  Level FlightAware Approximate
06:37PM 13.6758 -7.3135 306° West  Level FlightAware Approximate
06:38PM 13.7428 -7.4099 306° West  Level FlightAware Approximate
06:39PM 13.8097 -7.5063 306° West  Level FlightAware Approximate
06:40PM 13.8766 -7.6027 306° West  Level FlightAware Approximate
06:41PM 13.9434 -7.6992 306° West  Level FlightAware Approximate
06:42PM 14.0102 -7.7958 306° West  Level FlightAware Approximate
06:43PM 14.0770 -7.8924 305° West  Level FlightAware Approximate
06:44PM 14.1437 -7.9890 305° West  Level FlightAware Approximate
06:45PM 14.2104 -8.0858 305° West  Level FlightAware Approximate
06:46PM 14.2771 -8.1826 305° West  Level FlightAware Approximate
06:47PM 14.3437 -8.2794 305° West  Level FlightAware Approximate
06:48PM 14.4103 -8.3763 305° West  Level FlightAware Approximate
06:49PM 14.4768 -8.4733 305° West  Level FlightAware Approximate
06:50PM 14.5433 -8.5703 305° West  Level FlightAware Approximate
06:51PM 14.6098 -8.6673 305° West  Level FlightAware Approximate
06:52PM 14.6762 -8.7645 305° West  Level FlightAware Approximate
06:53PM 14.7426 -8.8617 305° West  Level FlightAware Approximate
06:54PM 14.8089 -8.9589 305° West  Level FlightAware Approximate
06:55PM 14.8752 -9.0562 305° West  Level FlightAware Approximate
06:56PM 14.9415 -9.1536 305° West  Level FlightAware Approximate
06:57PM 15.0077 -9.2510 305° West  Level FlightAware Approximate
06:58PM 15.0738 -9.3485 305° West  Level FlightAware Approximate
06:59PM 15.1400 -9.4461 305° West  Level FlightAware Approximate
07:00PM 15.2061 -9.5437 305° West  Level FlightAware Approximate
07:01PM 15.2721 -9.6413 305° West  Level FlightAware Approximate
07:02PM 15.3381 -9.7391 305° West  Level FlightAware Approximate
07:03PM 15.4041 -9.8369 305° West  Level FlightAware Approximate
07:04PM 15.4700 -9.9347 305° West  Level FlightAware Approximate
07:05PM 15.5359 -10.0326 305° West  Level FlightAware Approximate
07:06PM 15.6017 -10.1306 305° West  Level FlightAware Approximate
07:07PM 15.6675 -10.2287 305° West  Level FlightAware Approximate
07:08PM 15.7259 -10.3317 307° West  Level Estimated
07:09PM 15.7947 -10.4276 307° West  Level FlightAware Approximate
07:10PM 15.8634 -10.5235 307° West  Level FlightAware Approximate
07:11PM 15.9321 -10.6195 307° West  Level FlightAware Approximate
07:12PM 16.0007 -10.7156 307° West  Level FlightAware Approximate
07:13PM 16.0693 -10.8117 307° West  Level FlightAware Approximate
07:14PM 16.1379 -10.9079 307° West  Level FlightAware Approximate
07:15PM 16.2064 -11.0042 307° West  Level FlightAware Approximate
07:16PM 16.2749 -11.1005 307° West  Level FlightAware Approximate
07:17PM 16.3433 -11.1969 306° West  Level FlightAware Approximate
07:18PM 16.4117 -11.2934 306° West  Level FlightAware Approximate
07:19PM 16.4800 -11.3899 306° West  Level FlightAware Approximate
07:20PM 16.5483 -11.4865 306° West  Level FlightAware Approximate
07:21PM 16.6166 -11.5832 306° West  Level FlightAware Approximate
07:22PM 16.6848 -11.6799 306° West  Level FlightAware Approximate
07:23PM 16.7530 -11.7767 306° West  Level FlightAware Approximate
07:24PM 16.8211 -11.8736 306° West  Level FlightAware Approximate
07:25PM 16.8891 -11.9705 306° West  Level FlightAware Approximate
07:26PM 16.9572 -12.0676 306° West  Level FlightAware Approximate
07:27PM 17.0252 -12.1647 306° West  Level FlightAware Approximate
07:28PM 17.0931 -12.2618 306° West  Level FlightAware Approximate
07:29PM 17.1610 -12.3590 306° West  Level FlightAware Approximate
07:30PM 17.2288 -12.4564 306° West  Level FlightAware Approximate
07:31PM 17.2966 -12.5537 306° West  Level FlightAware Approximate
07:32PM 17.3643 -12.6512 306° West  Level FlightAware Approximate
07:33PM 17.4321 -12.7487 306° West  Level FlightAware Approximate
07:34PM 17.4997 -12.8463 306° West  Level FlightAware Approximate
07:35PM 17.5673 -12.9439 306° West  Level FlightAware Approximate
07:36PM 17.6349 -13.0417 306° West  Level FlightAware Approximate
07:37PM 17.7024 -13.1395 306° West  Level FlightAware Approximate
07:38PM 17.7698 -13.2374 306° West  Level FlightAware Approximate
07:39PM 17.8372 -13.3353 306° West  Level FlightAware Approximate
07:40PM 17.9046 -13.4334 306° West  Level FlightAware Approximate
07:41PM 17.9719 -13.5315 306° West  Level FlightAware Approximate
07:42PM 18.0392 -13.6297 306° West  Level FlightAware Approximate
07:43PM 18.1064 -13.7279 306° West  Level FlightAware Approximate
07:44PM 18.1736 -13.8262 306° West  Level FlightAware Approximate
07:45PM 18.2407 -13.9247 306° West  Level FlightAware Approximate
07:46PM 18.3078 -14.0231 306° West  Level FlightAware Approximate
07:47PM 18.3748 -14.1217 306° West  Level FlightAware Approximate
07:48PM 18.4420 -14.2207 306° West  Level FlightAware Approximate
07:49PM 18.5092 -14.3198 306° West  Level FlightAware Approximate
07:50PM 18.5653 -14.4264 306° West  Level Estimated
07:51PM 18.6332 -14.5250 306° West  Level FlightAware Approximate
07:52PM 18.7010 -14.6238 306° West  Level FlightAware Approximate
07:53PM 18.7688 -14.7226 306° West  Level FlightAware Approximate
07:54PM 18.8365 -14.8215 306° West  Level FlightAware Approximate
07:55PM 18.9042 -14.9205 306° West  Level FlightAware Approximate
07:56PM 18.9718 -15.0195 306° West  Level FlightAware Approximate
07:57PM 19.0393 -15.1187 306° West  Level FlightAware Approximate
07:58PM 19.1068 -15.2179 306° West  Level FlightAware Approximate
07:59PM 19.1743 -15.3172 306° West  Level FlightAware Approximate
08:00PM 19.2417 -15.4166 306° West  Level FlightAware Approximate
08:01PM 19.3090 -15.5160 306° West  Level FlightAware Approximate
08:02PM 19.3763 -15.6156 306° West  Level FlightAware Approximate
08:03PM 19.4436 -15.7152 306° West  Level FlightAware Approximate
08:04PM 19.5108 -15.8149 306° West  Level FlightAware Approximate
08:05PM 19.5779 -15.9147 306° West  Level FlightAware Approximate
08:06PM 19.6450 -16.0146 306° West  Level FlightAware Approximate
08:07PM 19.7120 -16.1145 305° West  Level FlightAware Approximate
08:08PM 19.7790 -16.2146 305° West  Level FlightAware Approximate
08:09PM 19.8459 -16.3147 305° West  Level FlightAware Approximate
08:10PM 19.9127 -16.4149 305° West  Level FlightAware Approximate
08:11PM 19.9795 -16.5152 305° West  Level FlightAware Approximate
08:12PM 20.0463 -16.6156 305° West  Level FlightAware Approximate
08:13PM 20.1129 -16.7161 305° West  Level FlightAware Approximate
08:14PM 20.1796 -16.8166 305° West  Level FlightAware Approximate
08:15PM 20.2461 -16.9172 305° West  Level FlightAware Approximate
08:16PM 20.3127 -17.0180 305° West  Level FlightAware Approximate
08:17PM 20.3791 -17.1188 305° West  Level FlightAware Approximate
08:18PM 20.4455 -17.2197 305° West  Level FlightAware Approximate
08:19PM 20.5119 -17.3207 305° West  Level FlightAware Approximate
08:20PM 20.5781 -17.4217 305° West  Level FlightAware Approximate
08:21PM 20.6444 -17.5229 305° West  Level FlightAware Approximate
08:22PM 20.7105 -17.6241 305° West  Level FlightAware Approximate
08:23PM 20.7766 -17.7255 305° West  Level FlightAware Approximate
08:24PM 20.8426 -17.8269 305° West  Level FlightAware Approximate
08:25PM 20.9086 -17.9284 305° West  Level FlightAware Approximate
08:26PM 20.9746 -18.0300 305° West  Level FlightAware Approximate
08:27PM 21.0404 -18.1317 305° West  Level FlightAware Approximate
08:28PM 21.1062 -18.2335 305° West  Level FlightAware Approximate
08:29PM 21.1719 -18.3354 305° West  Level FlightAware Approximate
08:30PM 21.2376 -18.4373 305° West  Level FlightAware Approximate
08:31PM 21.3032 -18.5394 305° West  Level FlightAware Approximate
08:32PM 21.3688 -18.6415 305° West  Level FlightAware Approximate
08:33PM 21.4343 -18.7437 305° West  Level FlightAware Approximate
08:34PM 21.4998 -18.8461 305° West  Level FlightAware Approximate
08:35PM 21.5651 -18.9485 304° West  Level FlightAware Approximate
08:36PM 21.6304 -19.0510 304° West  Level FlightAware Approximate
08:37PM 21.6957 -19.1536 304° West  Level FlightAware Approximate
08:38PM 21.7609 -19.2563 304° West  Level FlightAware Approximate
08:39PM 21.8260 -19.3591 304° West  Level FlightAware Approximate
08:40PM 21.8910 -19.4620 304° West  Level FlightAware Approximate
08:41PM 21.9560 -19.5650 304° West  Level FlightAware Approximate
08:42PM 22.0210 -19.6681 304° West  Level FlightAware Approximate
08:43PM 22.0858 -19.7712 304° West  Level FlightAware Approximate
08:44PM 22.1506 -19.8745 304° West  Level FlightAware Approximate
08:45PM 22.2153 -19.9778 304° West  Level FlightAware Approximate
08:46PM 22.2800 -20.0813 304° West  Level FlightAware Approximate
08:47PM 22.3446 -20.1848 304° West  Level FlightAware Approximate
08:48PM 22.4092 -20.2885 304° West  Level FlightAware Approximate
08:49PM 22.4736 -20.3922 304° West  Level FlightAware Approximate
08:50PM 22.5380 -20.4961 304° West  Level FlightAware Approximate
08:51PM 22.6024 -20.6000 304° West  Level FlightAware Approximate
08:52PM 22.6667 -20.7040 304° West  Level FlightAware Approximate
08:53PM 22.7309 -20.8081 304° West  Level FlightAware Approximate
08:54PM 22.7950 -20.9124 304° West  Level FlightAware Approximate
08:55PM 22.8591 -21.0167 304° West  Level FlightAware Approximate
08:56PM 22.9231 -21.1211 304° West  Level FlightAware Approximate
08:57PM 22.9870 -21.2256 304° West  Level FlightAware Approximate
08:58PM 23.0508 -21.3303 304° West  Level FlightAware Approximate
08:59PM 23.1147 -21.4350 304° West  Level FlightAware Approximate
09:00PM 23.1784 -21.5398 303° West  Level FlightAware Approximate
09:01PM 23.2420 -21.6447 303° West  Level FlightAware Approximate
09:02PM 23.3056 -21.7497 303° West  Level FlightAware Approximate
09:03PM 23.3692 -21.8549 303° West  Level FlightAware Approximate
09:04PM 23.4326 -21.9601 303° West  Level FlightAware Approximate
09:05PM 23.4961 -22.0655 303° West  Level FlightAware Approximate
09:06PM 23.5595 -22.1711 303° West  Level FlightAware Approximate
09:07PM 23.6228 -22.2768 303° West  Level FlightAware Approximate
09:08PM 23.6860 -22.3825 303° West  Level FlightAware Approximate
09:09PM 23.7492 -22.4884 303° West  Level FlightAware Approximate
09:10PM 23.8123 -22.5944 303° West  Level FlightAware Approximate
09:11PM 23.8753 -22.7005 303° West  Level FlightAware Approximate
09:12PM 23.9383 -22.8067 303° West  Level FlightAware Approximate
09:13PM 24.0012 -22.9129 303° West  Level FlightAware Approximate
09:14PM 24.0640 -23.0193 303° West  Level FlightAware Approximate
09:15PM 24.1267 -23.1258 303° West  Level FlightAware Approximate
09:16PM 24.1894 -23.2324 303° West  Level FlightAware Approximate
09:17PM 24.2520 -23.3391 303° West  Level FlightAware Approximate
09:18PM 24.3145 -23.4459 303° West  Level FlightAware Approximate
09:19PM 24.3769 -23.5528 303° West  Level FlightAware Approximate
09:20PM 24.4393 -23.6598 303° West  Level FlightAware Approximate
09:21PM 24.5016 -23.7670 303° West  Level FlightAware Approximate
09:22PM 24.5638 -23.8742 303° West  Level FlightAware Approximate
09:23PM 24.6259 -23.9815 303° West  Level FlightAware Approximate
09:24PM 24.6880 -24.0890 302° West  Level FlightAware Approximate
09:25PM 24.7500 -24.1965 302° West  Level FlightAware Approximate
09:26PM 24.8119 -24.3042 302° West  Level FlightAware Approximate
09:27PM 24.8737 -24.4119 302° West  Level FlightAware Approximate
09:28PM 24.9355 -24.5198 302° West  Level FlightAware Approximate
09:29PM 24.9972 -24.6278 302° West  Level FlightAware Approximate
09:30PM 25.0588 -24.7359 302° West  Level FlightAware Approximate
09:31PM 25.1203 -24.8441 302° West  Level FlightAware Approximate
09:32PM 25.1817 -24.9524 302° West  Level FlightAware Approximate
09:33PM 25.2431 -25.0608 302° West  Level FlightAware Approximate
09:34PM 25.3044 -25.1693 302° West  Level FlightAware Approximate
09:35PM 25.3656 -25.2780 302° West  Level FlightAware Approximate
09:36PM 25.4267 -25.3867 302° West  Level FlightAware Approximate
09:37PM 25.4877 -25.4956 302° West  Level FlightAware Approximate
09:38PM 25.5487 -25.6046 302° West  Level FlightAware Approximate
09:39PM 25.6096 -25.7136 302° West  Level FlightAware Approximate
09:40PM 25.6704 -25.8228 302° West  Level FlightAware Approximate
09:41PM 25.7311 -25.9321 302° West  Level FlightAware Approximate
09:42PM 25.7917 -26.0415 302° West  Level FlightAware Approximate
09:43PM 25.8523 -26.1511 302° West  Level FlightAware Approximate
09:44PM 25.9128 -26.2607 302° West  Level FlightAware Approximate
09:45PM 25.9732 -26.3704 301° West  Level FlightAware Approximate
09:46PM 26.0335 -26.4803 301° West  Level FlightAware Approximate
09:47PM 26.0937 -26.5903 301° West  Level FlightAware Approximate
09:48PM 26.1538 -26.7004 301° West  Level FlightAware Approximate
09:49PM 26.2139 -26.8106 301° West  Level FlightAware Approximate
09:50PM 26.2739 -26.9209 301° West  Level FlightAware Approximate
09:51PM 26.3338 -27.0313 301° West  Level FlightAware Approximate
09:52PM 26.3936 -27.1418 301° West  Level FlightAware Approximate
09:53PM 26.4533 -27.2525 301° West  Level FlightAware Approximate
09:54PM 26.5129 -27.3633 301° West  Level FlightAware Approximate
09:55PM 26.5725 -27.4742 301° West  Level FlightAware Approximate
09:56PM 26.6320 -27.5852 301° West  Level FlightAware Approximate
09:57PM 26.6913 -27.6963 301° West  Level FlightAware Approximate
09:58PM 26.7506 -27.8075 301° West  Level FlightAware Approximate
09:59PM 26.8098 -27.9189 301° West  Level FlightAware Approximate
10:00PM 26.8689 -28.0303 301° West  Level FlightAware Approximate
10:01PM 26.9280 -28.1419 301° West  Level FlightAware Approximate
10:02PM 26.9869 -28.2536 301° West  Level FlightAware Approximate
10:03PM 27.0458 -28.3654 301° West  Level FlightAware Approximate
10:04PM 27.1045 -28.4774 301° West  Level FlightAware Approximate
10:05PM 27.1632 -28.5894 300° West  Level FlightAware Approximate
10:06PM 27.2218 -28.7016 300° West  Level FlightAware Approximate
10:07PM 27.2803 -28.8139 300° West  Level FlightAware Approximate
10:08PM 27.3387 -28.9263 300° West  Level FlightAware Approximate
10:09PM 27.3970 -29.0388 300° West  Level FlightAware Approximate
10:10PM 27.4553 -29.1514 300° West  Level FlightAware Approximate
10:11PM 27.5134 -29.2642 300° West  Level FlightAware Approximate
10:12PM 27.5714 -29.3771 300° West  Level FlightAware Approximate
10:13PM 27.6294 -29.4901 300° West  Level FlightAware Approximate
10:14PM 27.6873 -29.6032 300° West  Level FlightAware Approximate
10:15PM 27.7450 -29.7164 300° West  Level FlightAware Approximate
10:16PM 27.8027 -29.8298 300° West  Level FlightAware Approximate
10:17PM 27.8603 -29.9433 300° West  Level FlightAware Approximate
10:18PM 27.9178 -30.0569 300° West  Level FlightAware Approximate
10:19PM 27.9752 -30.1706 300° West  Level FlightAware Approximate
10:20PM 28.0325 -30.2844 300° West  Level FlightAware Approximate
10:21PM 28.0897 -30.3984 300° West  Level FlightAware Approximate
10:22PM 28.1468 -30.5125 300° West  Level FlightAware Approximate
10:23PM 28.2039 -30.6267 300° West  Level FlightAware Approximate
10:24PM 28.2608 -30.7410 300° West  Level FlightAware Approximate
10:25PM 28.3176 -30.8554 299° West  Level FlightAware Approximate
10:26PM 28.3744 -30.9700 299° West  Level FlightAware Approximate
10:27PM 28.4310 -31.0847 299° West  Level FlightAware Approximate
10:28PM 28.4876 -31.1995 299° West  Level FlightAware Approximate
10:29PM 28.5440 -31.3145 299° West  Level FlightAware Approximate
10:30PM 28.6003 -31.4295 299° West  Level FlightAware Approximate
10:31PM 28.6566 -31.5447 299° West  Level FlightAware Approximate
10:32PM 28.7128 -31.6600 299° West  Level FlightAware Approximate
10:33PM 28.7688 -31.7754 299° West  Level FlightAware Approximate
10:34PM 28.8248 -31.8910 299° West  Level FlightAware Approximate
10:35PM 28.8806 -32.0067 299° West  Level FlightAware Approximate
10:36PM 28.9364 -32.1225 299° West  Level FlightAware Approximate
10:37PM 28.9921 -32.2384 299° West  Level FlightAware Approximate
10:38PM 29.0476 -32.3545 299° West  Level FlightAware Approximate
10:39PM 29.1033 -32.4710 299° West  Level FlightAware Approximate
10:40PM 29.1588 -32.5876 299° West  Level FlightAware Approximate
10:41PM 29.2142 -32.7043 299° West  Level FlightAware Approximate
10:42PM 29.2695 -32.8212 299° West  Level FlightAware Approximate
10:43PM 29.3247 -32.9382 298° West  Level FlightAware Approximate
10:44PM 29.3798 -33.0554 298° West  Level FlightAware Approximate
10:45PM 29.4348 -33.1726 298° West  Level FlightAware Approximate
10:46PM 29.4897 -33.2900 298° West  Level FlightAware Approximate
10:47PM 29.5445 -33.4075 298° West  Level FlightAware Approximate
10:48PM 29.5992 -33.5251 298° West  Level FlightAware Approximate
10:49PM 29.6538 -33.6429 298° West  Level FlightAware Approximate
10:50PM 29.7083 -33.7608 298° West  Level FlightAware Approximate
10:51PM 29.7627 -33.8788 298° West  Level FlightAware Approximate
10:52PM 29.8170 -33.9969 298° West  Level FlightAware Approximate
10:53PM 29.8711 -34.1152 298° West  Level FlightAware Approximate
10:54PM 29.9252 -34.2336 298° West  Level FlightAware Approximate
10:55PM 29.9792 -34.3521 298° West  Level FlightAware Approximate
10:56PM 30.0330 -34.4708 298° West  Level FlightAware Approximate
10:57PM 30.0868 -34.5896 298° West  Level FlightAware Approximate
10:58PM 30.1404 -34.7085 298° West  Level FlightAware Approximate
10:59PM 30.1940 -34.8276 298° West  Level FlightAware Approximate
11:00PM 30.2474 -34.9467 297° West  Level FlightAware Approximate
11:01PM 30.3007 -35.0661 297° West  Level FlightAware Approximate
11:02PM 30.3539 -35.1855 297° West  Level FlightAware Approximate
11:03PM 30.4070 -35.3051 297° West  Level FlightAware Approximate
11:04PM 30.4600 -35.4248 297° West  Level FlightAware Approximate
11:05PM 30.5129 -35.5446 297° West  Level FlightAware Approximate
11:06PM 30.5657 -35.6646 297° West  Level FlightAware Approximate
11:07PM 30.6184 -35.7846 297° West  Level FlightAware Approximate
11:08PM 30.6709 -35.9049 297° West  Level FlightAware Approximate
11:09PM 30.7234 -36.0252 297° West  Level FlightAware Approximate
11:10PM 30.7757 -36.1457 297° West  Level FlightAware Approximate
11:11PM 30.8279 -36.2663 297° West  Level FlightAware Approximate
11:12PM 30.8800 -36.3870 297° West  Level FlightAware Approximate
11:13PM 30.9320 -36.5079 297° West  Level FlightAware Approximate
11:14PM 30.9839 -36.6289 297° West  Level FlightAware Approximate
11:15PM 31.0357 -36.7500 297° West  Level FlightAware Approximate
11:16PM 31.0873 -36.8713 296° West  Level FlightAware Approximate
11:17PM 31.1389 -36.9927 296° West  Level FlightAware Approximate
11:18PM 31.1903 -37.1142 296° West  Level FlightAware Approximate
11:19PM 31.2416 -37.2359 296° West  Level FlightAware Approximate
11:20PM 31.2744 -37.3661 296° West  Level Estimated
11:21PM 31.3265 -37.4874 297° West  Level FlightAware Approximate
11:22PM 31.3784 -37.6089 297° West  Level FlightAware Approximate
11:23PM 31.4303 -37.7305 297° West  Level FlightAware Approximate
11:24PM 31.4820 -37.8522 297° West  Level FlightAware Approximate
11:25PM 31.5336 -37.9741 296° West  Level FlightAware Approximate
11:26PM 31.5851 -38.0961 296° West  Level FlightAware Approximate
11:27PM 31.6365 -38.2182 296° West  Level FlightAware Approximate
11:28PM 31.6679 -38.3494 295° West  Level Estimated
11:29PM 31.7187 -38.4720 296° West  Level FlightAware Approximate
11:30PM 31.7694 -38.5947 296° West  Level FlightAware Approximate
11:31PM 31.8200 -38.7175 296° West  Level FlightAware Approximate
11:32PM 31.8704 -38.8405 296° West  Level FlightAware Approximate
11:33PM 31.9208 -38.9636 296° West  Level FlightAware Approximate
11:34PM 31.9710 -39.0869 296° West  Level FlightAware Approximate
11:35PM 32.0211 -39.2103 296° West  Level FlightAware Approximate
11:36PM 32.0710 -39.3338 296° West  Level FlightAware Approximate
11:37PM 32.1209 -39.4575 295° West  Level FlightAware Approximate
11:38PM 32.1706 -39.5813 295° West  Level FlightAware Approximate
11:39PM 32.2202 -39.7052 295° West  Level FlightAware Approximate
11:40PM 32.2697 -39.8293 295° West  Level FlightAware Approximate
11:41PM 32.3191 -39.9534 295° West  Level FlightAware Approximate
11:42PM 32.3683 -40.0778 295° West  Level FlightAware Approximate
11:43PM 32.4174 -40.2023 295° West  Level FlightAware Approximate
11:44PM 32.4664 -40.3269 295° West  Level FlightAware Approximate
11:45PM 32.5153 -40.4516 295° West  Level FlightAware Approximate
11:46PM 32.5641 -40.5765 295° West  Level FlightAware Approximate
11:47PM 32.6127 -40.7015 295° West  Level FlightAware Approximate
11:48PM 32.6612 -40.8266 295° West  Level FlightAware Approximate
11:49PM 32.7096 -40.9519 295° West  Level FlightAware Approximate
11:50PM 32.7579 -41.0773 295° West  Level FlightAware Approximate
11:51PM 32.8060 -41.2029 295° West  Level FlightAware Approximate
11:52PM 32.8540 -41.3286 294° West  Level FlightAware Approximate
11:53PM 32.9019 -41.4544 294° West  Level FlightAware Approximate
11:54PM 32.9496 -41.5804 294° West  Level FlightAware Approximate
11:55PM 32.9973 -41.7065 294° West  Level FlightAware Approximate
11:56PM 33.0448 -41.8327 294° West  Level FlightAware Approximate
11:57PM 33.0921 -41.9591 294° West  Level FlightAware Approximate
11:58PM 33.1394 -42.0856 294° West  Level FlightAware Approximate
11:59PM 33.1865 -42.2122 294° West  Level FlightAware Approximate
12:00AM 33.2335 -42.3390 294° West  Level FlightAware Approximate
12:01AM 33.2804 -42.4659 294° West  Level FlightAware Approximate
12:02AM 33.3054 -42.6015 292° West  Level Estimated
12:03AM 33.3516 -42.7288 294° West  Level FlightAware Approximate
12:04AM 33.3977 -42.8563 293° West  Level FlightAware Approximate
12:05AM 33.4436 -42.9839 293° West  Level FlightAware Approximate
12:06AM 33.4894 -43.1117 293° West  Level FlightAware Approximate
12:07AM 33.5351 -43.2396 293° West  Level FlightAware Approximate
12:08AM 33.5806 -43.3676 293° West  Level FlightAware Approximate
12:09AM 33.6261 -43.4958 293° West  Level FlightAware Approximate
12:10AM 33.6713 -43.6241 293° West  Level FlightAware Approximate
12:11AM 33.7165 -43.7526 293° West  Level FlightAware Approximate
12:12AM 33.7615 -43.8811 293° West  Level FlightAware Approximate
12:13AM 33.8064 -44.0099 293° West  Level FlightAware Approximate
12:14AM 33.8512 -44.1387 293° West  Level FlightAware Approximate
12:15AM 33.8958 -44.2677 293° West  Level FlightAware Approximate
12:16AM 33.9403 -44.3968 293° West  Level FlightAware Approximate
12:17AM 33.9846 -44.5261 293° West  Level FlightAware Approximate
12:18AM 34.0288 -44.6554 292° West  Level FlightAware Approximate
12:19AM 34.0729 -44.7850 292° West  Level FlightAware Approximate
12:20AM 34.1168 -44.9146 292° West  Level FlightAware Approximate
12:21AM 34.1606 -45.0444 292° West  Level FlightAware Approximate
12:22AM 34.2043 -45.1744 292° West  Level FlightAware Approximate
12:23AM 34.2478 -45.3044 292° West  Level FlightAware Approximate
12:24AM 34.2912 -45.4346 292° West  Level FlightAware Approximate
12:25AM 34.3345 -45.5649 292° West  Level FlightAware Approximate
12:26AM 34.3776 -45.6954 292° West  Level FlightAware Approximate
12:27AM 34.4206 -45.8260 292° West  Level FlightAware Approximate
12:28AM 34.4634 -45.9567 292° West  Level FlightAware Approximate
12:29AM 34.5061 -46.0876 292° West  Level FlightAware Approximate
12:30AM 34.5487 -46.2186 292° West  Level FlightAware Approximate
12:31AM 34.5911 -46.3497 291° West  Level FlightAware Approximate
12:32AM 34.6334 -46.4810 291° West  Level FlightAware Approximate
12:33AM 34.6755 -46.6124 291° West  Level FlightAware Approximate
12:34AM 34.7175 -46.7439 291° West  Level FlightAware Approximate
12:35AM 34.7594 -46.8756 291° West  Level FlightAware Approximate
12:36AM 34.8011 -47.0074 291° West  Level FlightAware Approximate
12:37AM 34.8427 -47.1394 291° West  Level FlightAware Approximate
12:38AM 34.8841 -47.2714 291° West  Level FlightAware Approximate
12:39AM 34.9254 -47.4036 291° West  Level FlightAware Approximate
12:40AM 34.9665 -47.5359 291° West  Level FlightAware Approximate
12:41AM 35.0075 -47.6684 291° West  Level FlightAware Approximate
12:42AM 35.0484 -47.8010 291° West  Level FlightAware Approximate
12:43AM 35.0891 -47.9338 291° West  Level FlightAware Approximate
12:43AM 33.0000 -40.0000 299° West 429 494 36,000  Level New York Oceanic (ODAPS)
12:44AM 35.1297 -48.0666 291° West  Level FlightAware Approximate
12:45AM 35.1701 -48.1996 290° West  Level FlightAware Approximate
12:46AM 35.2104 -48.3327 290° West  Level FlightAware Approximate
12:47AM 35.2505 -48.4660 290° West  Level FlightAware Approximate
12:48AM 35.2906 -48.5998 290° West  Level FlightAware Approximate
12:49AM 35.3305 -48.7337 290° West  Level FlightAware Approximate
12:49AM 33.3833 -40.8167 298° West 430 495 36,000  Level New York Oceanic (ODAPS)
12:50AM 33.3964 -40.8689 298° West 429 494 36,000  Level FlightAware Transoceanic
12:51AM 33.4526 -40.9936 298° West 429 494 36,000  Level FlightAware Transoceanic
12:52AM 33.5086 -41.1186 298° West 429 494 36,000  Level FlightAware Transoceanic
12:53AM 33.5645 -41.2437 298° West 429 494 36,000  Level FlightAware Transoceanic
12:54AM 33.6202 -41.3689 298° West 429 494 36,000  Level FlightAware Transoceanic
12:55AM 33.6759 -41.4943 298° West 429 494 36,000  Level FlightAware Transoceanic
12:56AM 33.7245 -41.5829 298° West 430 495 36,000  Level FlightAware Transoceanic
12:57AM 33.7809 -41.7112 298° West 430 495 36,000  Level FlightAware Transoceanic
12:58AM 33.8372 -41.8396 298° West 430 495 36,000  Level FlightAware Transoceanic
12:59AM 33.8933 -41.9683 298° West 430 495 36,000  Level FlightAware Transoceanic
01:00AM 33.9494 -42.0970 298° West 430 495 36,000  Level FlightAware Transoceanic
01:01AM 34.0052 -42.2260 298° West 430 495 36,000  Level FlightAware Transoceanic
01:02AM 34.0610 -42.3551 297° West 430 495 36,000  Level FlightAware Transoceanic
01:03AM 34.1166 -42.4845 297° West 430 495 36,000  Level FlightAware Transoceanic
01:03AM 34.1500 -42.5833 297° West 429 494 36,000  Level New York Oceanic (ODAPS)
01:04AM 34.1720 -42.6139 297° West 430 495 36,000  Level FlightAware Transoceanic
01:05AM 34.2274 -42.7436 297° West 430 495 36,000  Level FlightAware Transoceanic
01:06AM 34.2826 -42.8734 297° West 430 495 36,000  Level FlightAware Transoceanic
01:07AM 34.3376 -43.0034 297° West 430 495 36,000  Level FlightAware Transoceanic
01:08AM 34.3925 -43.1335 297° West 430 495 36,000  Level FlightAware Transoceanic
01:09AM 34.4473 -43.2639 297° West 430 495 36,000  Level FlightAware Transoceanic
01:10AM 34.5239 -43.4658 297° West 429 494 36,000  Level FlightAware Transoceanic
01:11AM 34.5769 -43.5925 297° West 429 494 36,000  Level FlightAware Transoceanic
01:12AM 34.6296 -43.7193 297° West 429 494 36,000  Level FlightAware Transoceanic
01:13AM 34.6823 -43.8464 297° West 429 494 36,000  Level FlightAware Transoceanic
01:14AM 34.7348 -43.9735 297° West 429 494 36,000  Level FlightAware Transoceanic
01:15AM 34.7871 -44.1009 297° West 429 494 36,000  Level FlightAware Transoceanic
01:16AM 34.8394 -44.2284 296° West 429 494 36,000  Level FlightAware Transoceanic
01:17AM 34.8915 -44.3561 296° West 429 494 36,000  Level FlightAware Transoceanic
01:17AM 34.9000 -44.3667 296° West 424 488 36,000  Level New York Oceanic (ODAPS)
01:18AM 34.9435 -44.4839 296° West 429 494 36,000  Level FlightAware Transoceanic
01:19AM 34.9953 -44.6119 296° West 429 494 36,000  Level FlightAware Transoceanic
01:20AM 35.0470 -44.7401 296° West 429 494 36,000  Level FlightAware Transoceanic
01:21AM 35.0986 -44.8684 296° West 429 494 36,000  Level FlightAware Transoceanic
01:22AM 35.1500 -44.9969 296° West 429 494 36,000  Level FlightAware Transoceanic
01:23AM 35.2086 -45.1347 296° West 424 488 36,000  Level FlightAware Transoceanic
01:24AM 35.2595 -45.2633 296° West 424 488 36,000  Level FlightAware Transoceanic
01:25AM 35.3104 -45.3921 296° West 424 488 36,000  Level FlightAware Transoceanic
01:26AM 35.3610 -45.5210 296° West 424 488 36,000  Level FlightAware Transoceanic
01:27AM 35.4116 -45.6500 296° West 424 488 36,000  Level FlightAware Transoceanic
01:28AM 35.4620 -45.7792 296° West 424 488 36,000  Level FlightAware Transoceanic
01:29AM 35.5123 -45.9086 295° West 424 488 36,000  Level FlightAware Transoceanic
01:30AM 35.5624 -46.0382 295° West 424 488 36,000  Level FlightAware Transoceanic
01:31AM 35.6124 -46.1679 295° West 424 488 36,000  Level FlightAware Transoceanic
01:31AM 35.5833 -46.1167 295° West 419 482 36,000  Level New York Oceanic (ODAPS)
01:32AM 35.6623 -46.2977 295° West 424 488 36,000  Level FlightAware Transoceanic
01:33AM 35.7120 -46.4278 295° West 424 488 36,000  Level FlightAware Transoceanic
01:34AM 35.7616 -46.5580 295° West 424 488 36,000  Level FlightAware Transoceanic
01:35AM 35.8110 -46.6883 295° West 424 488 36,000  Level FlightAware Transoceanic
01:36AM 35.8603 -46.8189 295° West 424 488 36,000  Level FlightAware Transoceanic
01:37AM 35.8766 -46.8820 295° West 419 482 36,000  Level FlightAware Transoceanic
01:38AM 35.9250 -47.0102 295° West 419 482 36,000  Level FlightAware Transoceanic
01:39AM 35.9733 -47.1384 295° West 419 482 36,000  Level FlightAware Transoceanic
01:40AM 36.0214 -47.2668 295° West 419 482 36,000  Level FlightAware Transoceanic
01:41AM 36.0694 -47.3954 295° West 419 482 36,000  Level FlightAware Transoceanic
01:42AM 36.1173 -47.5242 295° West 419 482 36,000  Level FlightAware Transoceanic
01:43AM 36.1650 -47.6531 295° West 419 482 36,000  Level FlightAware Transoceanic
01:44AM 36.2126 -47.7821 295° West 419 482 36,000  Level FlightAware Transoceanic
01:45AM 36.2601 -47.9113 294° West 419 482 36,000  Level FlightAware Transoceanic
01:45AM 36.2667 -47.9333 294° West 412 474 36,000  Level New York Oceanic (ODAPS)
01:46AM 36.3074 -48.0407 294° West 419 482 36,000  Level FlightAware Transoceanic
01:47AM 36.3545 -48.1702 294° West 419 482 36,000  Level FlightAware Transoceanic
01:48AM 36.4016 -48.2999 294° West 419 482 36,000  Level FlightAware Transoceanic
01:49AM 36.4484 -48.4297 294° West 419 482 36,000  Level FlightAware Transoceanic
01:50AM 36.4952 -48.5597 294° West 419 482 36,000  Level FlightAware Transoceanic
01:51AM 36.5458 -48.7037 294° West 412 474 36,000  Level FlightAware Transoceanic
01:52AM 36.5919 -48.8327 294° West 412 474 36,000  Level FlightAware Transoceanic
01:53AM 36.6378 -48.9618 294° West 412 474 36,000  Level FlightAware Transoceanic
01:54AM 36.6836 -49.0910 294° West 412 474 36,000  Level FlightAware Transoceanic
01:55AM 36.7292 -49.2204 294° West 412 474 36,000  Level FlightAware Transoceanic
01:56AM 36.7747 -49.3499 294° West 412 474 36,000  Level FlightAware Transoceanic
01:57AM 36.8200 -49.4796 294° West 412 474 36,000  Level FlightAware Transoceanic
01:58AM 36.8652 -49.6095 293° West 412 474 36,000  Level FlightAware Transoceanic
01:59AM 36.9103 -49.7395 293° West 412 474 36,000  Level FlightAware Transoceanic
01:59AM 36.9167 -49.7500 293° West 421 484 36,000  Level New York Oceanic (ODAPS)
02:00AM 36.9552 -49.8697 293° West 412 474 36,000  Level FlightAware Transoceanic
02:01AM 37.0000 -50.0000 280° West 412 474 36,000  Level FlightAware Transoceanic
02:01AM 37.0000 -50.0000 280° West 431 496 36,000  Level New York Oceanic (ODAPS)
02:02AM 37.0211 -50.1470 280° West 412 474 36,000  Level FlightAware Transoceanic
02:03AM 37.0420 -50.2942 280° West 412 474 36,000  Level FlightAware Transoceanic
02:04AM 37.0626 -50.4414 280° West 412 474 36,000  Level FlightAware Transoceanic
02:05AM 37.0832 -50.5886 280° West 412 474 36,000  Level FlightAware Transoceanic
02:06AM 37.1035 -50.7360 280° West 421 484 36,000  Level FlightAware Transoceanic
02:07AM 37.1236 -50.8834 280° West 431 496 36,000  Level FlightAware Transoceanic
02:08AM 37.1436 -51.0309 280° West 431 496 36,000  Level FlightAware Transoceanic
02:09AM 37.1634 -51.1786 280° West 431 496 36,000  Level FlightAware Transoceanic
02:10AM 37.1830 -51.3262 279° West 431 496 36,000  Level FlightAware Transoceanic
02:11AM 37.2024 -51.4740 279° West 431 496 36,000  Level FlightAware Transoceanic
02:12AM 37.2217 -51.6218 279° West 431 496 36,000  Level FlightAware Transoceanic
02:13AM 37.2407 -51.7697 279° West 431 496 36,000  Level FlightAware Transoceanic
02:13AM 37.2333 -51.7667 279° West 429 494 36,000  Level New York Oceanic (ODAPS)
02:14AM 37.2596 -51.9177 279° West 431 496 36,000  Level FlightAware Transoceanic
02:15AM 37.2783 -52.0657 279° West 431 496 36,000  Level FlightAware Transoceanic
02:16AM 37.2968 -52.2138 279° West 431 496 36,000  Level FlightAware Transoceanic
02:17AM 37.3151 -52.3620 279° West 431 496 36,000  Level FlightAware Transoceanic
02:18AM 37.3332 -52.5103 279° West 431 496 36,000  Level FlightAware Transoceanic
02:19AM 37.3446 -52.6558 279° West 429 494 36,000  Level FlightAware Transoceanic
02:20AM 37.3625 -52.8043 279° West 429 494 36,000  Level FlightAware Transoceanic
02:21AM 37.3802 -52.9528 278° West 429 494 36,000  Level FlightAware Transoceanic
02:22AM 37.3978 -53.1014 278° West 429 494 36,000  Level FlightAware Transoceanic
02:23AM 37.4151 -53.2501 278° West 429 494 36,000  Level FlightAware Transoceanic
02:24AM 37.4323 -53.3988 278° West 429 494 36,000  Level FlightAware Transoceanic
02:25AM 37.4492 -53.5476 278° West 429 494 36,000  Level FlightAware Transoceanic
02:26AM 37.4660 -53.6964 278° West 429 494 36,000  Level FlightAware Transoceanic
02:26AM 37.4833 -53.8167 278° West 424 488 36,000  Level New York Oceanic (ODAPS)
02:27AM 37.4826 -53.8454 278° West 429 494 36,000  Level FlightAware Transoceanic
02:28AM 37.4990 -53.9944 278° West 429 494 36,000  Level FlightAware Transoceanic
02:29AM 37.5152 -54.1434 278° West 429 494 36,000  Level FlightAware Transoceanic
02:30AM 37.5313 -54.2925 278° West 429 494 36,000  Level FlightAware Transoceanic
02:31AM 37.5471 -54.4417 278° West 429 494 36,000  Level FlightAware Transoceanic
02:32AM 37.5628 -54.5910 277° West 429 494 36,000  Level FlightAware Transoceanic
02:33AM 37.5790 -54.7158 277° West 424 488 36,000  Level FlightAware Transoceanic
02:34AM 37.5943 -54.8658 277° West 424 488 36,000  Level FlightAware Transoceanic
02:35AM 37.6094 -55.0160 277° West 424 488 36,000  Level FlightAware Transoceanic
02:36AM 37.6244 -55.1662 277° West 424 488 36,000  Level FlightAware Transoceanic
02:37AM 37.6391 -55.3164 277° West 424 488 36,000  Level FlightAware Transoceanic
02:38AM 37.6536 -55.4667 277° West 424 488 36,000  Level FlightAware Transoceanic
02:39AM 37.6679 -55.6171 277° West 424 488 36,000  Level FlightAware Transoceanic
02:40AM 37.6821 -55.7675 277° West 424 488 36,000  Level FlightAware Transoceanic
02:40AM 37.7000 -55.8667 277° West 427 491 36,000  Level New York Oceanic (ODAPS)
02:41AM 37.6960 -55.9180 277° West 424 488 36,000  Level FlightAware Transoceanic
02:42AM 37.7098 -56.0686 277° West 424 488 36,000  Level FlightAware Transoceanic
02:43AM 37.7234 -56.2192 276° West 424 488 36,000  Level FlightAware Transoceanic
02:44AM 37.7368 -56.3698 276° West 424 488 36,000  Level FlightAware Transoceanic
02:45AM 37.7499 -56.5205 276° West 424 488 36,000  Level FlightAware Transoceanic
02:46AM 37.7629 -56.6713 276° West 424 488 36,000  Level FlightAware Transoceanic
02:47AM 37.7791 -56.7822 276° West 427 491 36,000  Level FlightAware Transoceanic
02:48AM 37.7916 -56.9349 276° West 427 491 36,000  Level FlightAware Transoceanic
02:49AM 37.8039 -57.0877 276° West 427 491 36,000  Level FlightAware Transoceanic
02:50AM 37.8160 -57.2406 276° West 427 491 36,000  Level FlightAware Transoceanic
02:51AM 37.8279 -57.3935 276° West 427 491 36,000  Level FlightAware Transoceanic
02:52AM 37.8397 -57.5465 275° West 427 491 36,000  Level FlightAware Transoceanic
02:53AM 37.8512 -57.6995 275° West 427 491 36,000  Level FlightAware Transoceanic
02:54AM 37.8625 -57.8526 275° West 427 491 36,000  Level FlightAware Transoceanic
02:54AM 37.8667 -57.9500 275° West 436 502 36,000  Level New York Oceanic (ODAPS)
02:55AM 37.8736 -58.0057 275° West 427 491 36,000  Level FlightAware Transoceanic
02:56AM 37.8845 -58.1588 275° West 427 491 36,000  Level FlightAware Transoceanic
02:57AM 37.8952 -58.3120 275° West 427 491 36,000  Level FlightAware Transoceanic
02:58AM 37.9058 -58.4653 275° West 427 491 36,000  Level FlightAware Transoceanic
02:59AM 37.9161 -58.6186 275° West 427 491 36,000  Level FlightAware Transoceanic
03:00AM 37.9282 -58.8277 275° West 436 502 36,000  Level FlightAware Transoceanic
03:01AM 37.9378 -58.9741 275° West 436 502 36,000  Level FlightAware Transoceanic
03:02AM 37.9472 -59.1205 275° West 436 502 36,000  Level FlightAware Transoceanic
03:03AM 37.9565 -59.2670 275° West 436 502 36,000  Level FlightAware Transoceanic
03:04AM 37.9655 -59.4135 274° West 436 502 36,000  Level FlightAware Transoceanic
03:05AM 37.9744 -59.5601 274° West 436 502 36,000  Level FlightAware Transoceanic
03:06AM 37.9831 -59.7067 274° West 436 502 36,000  Level FlightAware Transoceanic
03:07AM 37.9917 -59.8533 274° West 436 502 36,000  Level FlightAware Transoceanic
03:08AM 38.0000 -60.0000 284° West 436 502 36,000  Level FlightAware Transoceanic
03:08AM 38.0000 -60.0000 284° West 439 505 36,000  Level New York Oceanic (ODAPS)
03:08AM 38.0167 -60.0500 284° West 441 507 36,000  Level New York Oceanic (ODAPS)
03:09AM 38.0293 -60.1531 284° West 436 502 36,000  Level FlightAware Transoceanic
03:10AM 38.0584 -60.3063 284° West 436 502 36,000  Level FlightAware Transoceanic
03:11AM 38.0873 -60.4596 283° West 436 502 36,000  Level FlightAware Transoceanic
03:12AM 38.1160 -60.6130 283° West 436 502 36,000  Level FlightAware Transoceanic
03:13AM 38.1445 -60.7666 283° West 436 502 36,000  Level FlightAware Transoceanic
03:14AM 38.1833 -60.9440 283° West 441 507 36,000  Level FlightAware Transoceanic
03:15AM 38.2104 -61.0934 283° West 441 507 36,000  Level FlightAware Transoceanic
03:16AM 38.2373 -61.2429 283° West 441 507 36,000  Level FlightAware Transoceanic
03:17AM 38.2640 -61.3925 283° West 441 507 36,000  Level FlightAware Transoceanic
03:18AM 38.2905 -61.5422 283° West 441 507 36,000  Level FlightAware Transoceanic
03:19AM 38.3169 -61.6921 283° West 441 507 36,000  Level FlightAware Transoceanic
03:20AM 38.3430 -61.8420 282° West 441 507 36,000  Level FlightAware Transoceanic
03:21AM 38.3690 -61.9921 282° West 441 507 36,000  Level FlightAware Transoceanic
03:22AM 38.3948 -62.1422 282° West 441 507 36,000 780 Level FlightAware Transoceanic
03:22AM 38.4000 -62.1667 282° West 438 504 37,100  Climbing New York Oceanic (ODAPS)
03:23AM 38.4204 -62.2925 282° West 441 507 36,000 -720 Descending FlightAware Transoceanic
03:24AM 38.4458 -62.4429 282° West 441 507 36,000 1,080 Level FlightAware Transoceanic
03:24AM 38.4500 -62.5000 282° West 440 506 38,000  Climbing New York Oceanic (ODAPS)
03:25AM 38.4710 -62.5933 282° West 441 507 36,000 -1,680 Descending FlightAware Transoceanic
03:26AM 38.4959 -62.7439 282° West 441 507 36,000  Level FlightAware Transoceanic
03:27AM 38.5208 -62.8946 282° West 441 507 36,000 540 Level FlightAware Transoceanic
03:28AM 38.5495 -63.0653 282° West 438 504 37,100 540 Climbing FlightAware Transoceanic
03:29AM 38.5737 -63.2155 282° West 438 504 37,100  Level FlightAware Transoceanic
03:30AM 38.5978 -63.3657 282° West 438 504 37,100 420 Level FlightAware Transoceanic
03:31AM 38.6020 -63.4240 282° West 440 506 38,000 420 Climbing FlightAware Transoceanic
03:32AM 38.6267 -63.5784 281° West 440 506 38,000  Level FlightAware Transoceanic
03:33AM 38.6511 -63.7328 281° West 440 506 38,000  Level FlightAware Transoceanic
03:34AM 38.6753 -63.8874 281° West 440 506 38,000  Level FlightAware Transoceanic
03:35AM 38.6993 -64.0421 281° West 440 506 38,000  Level FlightAware Transoceanic
03:36AM 38.7232 -64.1969 281° West 440 506 38,000  Level FlightAware Transoceanic
03:36AM 38.7167 -64.1667 281° West 423 487 38,000  Level New York Oceanic (ODAPS)
03:37AM 38.7468 -64.3518 281° West 440 506 38,000  Level FlightAware Transoceanic
03:38AM 38.7702 -64.5068 281° West 440 506 38,000  Level FlightAware Transoceanic
03:39AM 38.7934 -64.6619 281° West 440 506 38,000  Level FlightAware Transoceanic
03:40AM 38.8164 -64.8171 281° West 440 506 38,000  Level FlightAware Transoceanic
03:41AM 38.8392 -64.9724 281° West 440 506 38,000  Level FlightAware Transoceanic
03:42AM 38.8504 -65.0579 281° West 423 487 38,000  Level FlightAware Transoceanic
03:43AM 38.8720 -65.2068 281° West 423 487 38,000  Level FlightAware Transoceanic
03:44AM 38.8934 -65.3557 280° West 423 487 38,000  Level FlightAware Transoceanic
03:45AM 38.9147 -65.5048 280° West 423 487 38,000  Level FlightAware Transoceanic
03:46AM 38.9357 -65.6539 280° West 423 487 38,000  Level FlightAware Transoceanic
03:47AM 38.9566 -65.8031 280° West 423 487 38,000  Level FlightAware Transoceanic
03:48AM 38.9773 -65.9525 280° West 423 487 38,000  Level FlightAware Transoceanic
03:49AM 38.9978 -66.1018 280° West 423 487 38,000  Level FlightAware Transoceanic
03:50AM 39.0181 -66.2513 280° West 423 487 38,000  Level FlightAware Transoceanic
03:50AM 39.0167 -66.2667 280° West 508 585 38,000  Level New York Oceanic (ODAPS)
03:52AM 39.3378 -66.5722 280° West 466 536 38,000  Level New York Center
03:53AM 39.3053 -66.7192 254° West 460 529 38,000 -60 Level New York Center
03:54AM 39.2786 -66.8628 257° West 445 512 37,900  Descending New York Center
03:55AM 39.2797 -67.0236 271° West 424 488 38,000  Climbing New York Center
03:56AM 39.2822 -67.1764 271° West 438 504 38,000  Level New York Center
03:57AM 39.2764 -67.3350 267° West 443 510 38,000  Level New York Center
03:58AM 39.2744 -67.4881 269° West 443 510 38,000  Level New York Center
03:59AM 39.2703 -67.6464 268° West 443 510 38,000  Level New York Center
04:00AM 39.2658 -67.7994 268° West 438 504 38,000  Level New York Center
04:01AM 39.2633 -67.9522 269° West 438 504 38,000  Level New York Center
04:02AM 39.2586 -68.1133 268° West 445 512 38,000  Level New York Center
04:03AM 39.2556 -68.2636 269° West 439 505 38,000  Level New York Center
04:04AM 39.2522 -68.4194 268° West 439 505 38,000  Level New York Center
04:05AM 39.2469 -68.5778 268° West 445 512 38,000  Level New York Center
04:06AM 39.2414 -68.7333 267° West 438 504 38,000  Level New York Center
04:07AM 39.2375 -68.8836 268° West 438 504 38,000  Level New York Center
04:08AM 39.2314 -69.0444 267° West 443 510 38,000  Level New York Center
04:09AM 39.2253 -69.1975 267° West 438 504 38,000  Level New York Center
04:10AM 39.2208 -69.3475 268° West 437 503 38,000  Level New York Center
04:11AM 39.2142 -69.5031 267° West 437 503 38,000  Level New York Center
04:12AM 39.1969 -69.6589 262° West 443 510 38,000  Level New York Center
04:13AM 39.1814 -69.8144 263° West 443 510 38,000 -60 Level New York Center
04:14AM 39.1658 -69.9700 263° West 443 510 37,900  Descending New York Center
04:15AM 39.1500 -70.1228 262° West 443 510 38,000  Climbing New York Center
04:16AM 39.1361 -70.2753 263° West 443 510 38,000  Level New York Center
04:17AM 39.1242 -70.4281 264° West 443 510 38,000  Level New York Center
04:18AM 39.1056 -70.5886 262° West 448 516 38,000  Level New York Center
04:19AM 39.0892 -70.7411 262° West 442 509 38,000  Level New York Center
04:20AM 39.0722 -70.8908 262° West 442 509 38,000  Level New York Center
04:21AM 39.0572 -71.0458 263° West 442 509 38,000  Level New York Center
04:22AM 39.0400 -71.2008 262° West 442 509 38,000  Level New York Center
04:23AM 39.0269 -71.3317 263° West 442 509 38,000  Level New York Center
04:24AM 39.0094 -71.4839 262° West 442 509 38,000  Level New York Center
04:25AM 38.9939 -71.6361 263° West 437 503 38,000  Level New York Center
04:26AM 38.9736 -71.7933 261° West 437 503 38,000  Level New York Center
04:27AM 38.9578 -71.9400 262° West 432 497 38,000  Level New York Center
04:28AM 38.9394 -72.0944 261° West 440 506 38,000  Level New York Center
04:29AM 38.9228 -72.2489 262° West 445 512 38,000  Level New York Center
04:30AM 38.9039 -72.4058 261° West 450 518 38,000  Level New York Center
04:31AM 38.8850 -72.5575 261° West 441 507 38,000  Level New York Center
04:32AM 38.8681 -72.7064 262° West 441 507 38,000  Level New York Center
04:33AM 38.8486 -72.8633 261° West 447 514 38,000  Level New York Center
04:34AM 38.8289 -73.0228 261° West 447 514 38,000  Level New York Center
04:36AM 38.7875 -73.3331 260° West 438 504 38,000  Level Washington Center
04:37AM 38.7694 -73.4881 262° West 445 512 38,000  Level Washington Center
04:38AM 38.7261 -73.6358 249° West 445 512 38,000  Level Washington Center
04:39AM 38.6764 -73.7753 245° Southwest 445 512 38,000  Level Washington Center
04:40AM 38.6219 -73.9175 244° Southwest 445 512 38,000  Level Washington Center
04:41AM 38.5719 -74.0569 245° Southwest 445 512 38,000  Level Washington Center
04:42AM 38.5236 -74.1958 246° West 440 506 38,000  Level Washington Center
04:43AM 38.4708 -74.3375 245° Southwest 445 512 38,000  Level Washington Center
04:44AM 38.4181 -74.4786 245° Southwest 445 512 38,000  Level Washington Center
04:45AM 38.3692 -74.6172 246° West 445 512 38,000  Level Washington Center
04:46AM 38.3161 -74.7608 245° Southwest 445 512 38,000  Level Washington Center
04:47AM 38.2669 -74.9042 246° West 445 512 38,000  Level Washington Center
04:48AM 38.2136 -75.0447 244° Southwest 445 512 38,000 -60 Level Washington Center
04:49AM 38.1600 -75.1797 243° Southwest 445 512 37,900  Descending Washington Center
04:50AM 38.1103 -75.3253 247° West 445 512 38,000  Climbing Washington Center
04:51AM 38.0583 -75.4600 244° Southwest 445 512 38,000  Level Washington Center
04:52AM 38.0064 -75.5944 244° Southwest 445 512 38,000  Level Washington Center
04:53AM 37.9542 -75.7339 245° Southwest 439 505 38,000  Level Washington Center
04:54AM 37.8975 -75.8628 241° Southwest 439 505 38,000  Level Washington Center
04:55AM 37.8472 -76.0019 245° Southwest 434 499 38,000  Level Washington Center
04:56AM 37.7925 -76.1331 242° Southwest 429 494 38,000  Level Washington Center
04:57AM 37.7417 -76.2694 245° Southwest 429 494 38,000  Level Washington Center
04:58AM 37.6886 -76.4053 244° Southwest 429 494 38,000  Level Washington Center
04:59AM 37.6356 -76.5386 243° Southwest 429 494 38,000  Level Washington Center
05:00AM 37.5844 -76.6742 245° Southwest 429 494 38,000  Level Washington Center
05:01AM 37.5244 -76.8253 243° Southwest 429 494 38,000  Level Washington Center
05:02AM 37.4753 -76.9475 243° Southwest 435 501 38,000  Level Washington Center
05:03AM 37.4150 -77.0981 243° Southwest 435 501 38,000  Level Washington Center
05:04AM 37.3611 -77.2381 244° Southwest 441 507 38,000  Level Washington Center
05:05AM 37.3069 -77.3672 242° Southwest 441 507 38,000  Level Washington Center
05:06AM 37.2572 -77.4942 244° Southwest 441 507 38,000  Level Washington Center
05:07AM 37.2028 -77.6258 243° Southwest 441 507 38,000  Level Washington Center
05:08AM 37.1461 -77.7650 243° Southwest 446 513 38,000  Level Washington Center
05:09AM 37.0914 -77.8989 243° Southwest 446 513 38,000  Level Washington Center
05:10AM 37.0367 -78.0325 243° Southwest 446 513 38,000  Level Washington Center
05:11AM 36.9839 -78.1633 243° Southwest 446 513 38,000  Level Washington Center
05:12AM 36.9264 -78.3069 243° Southwest 447 514 38,000  Level Washington Center
05:13AM 36.8714 -78.4375 242° Southwest 447 514 38,000  Level Washington Center
05:14AM 36.8094 -78.5806 242° Southwest 433 498 38,000  Level Washington Center
05:15AM 36.7539 -78.7156 243° Southwest 433 498 38,000  Level Washington Center
05:16AM 36.6981 -78.8483 242° Southwest 433 498 38,000  Level Washington Center
05:17AM 36.6508 -78.9706 244° Southwest 433 498 38,000  Level Washington Center
05:18AM 36.5950 -79.1000 242° Southwest 433 498 38,000  Level Washington Center
05:19AM 36.5369 -79.2242 240° Southwest 426 490 38,000  Level Washington Center
05:20AM 36.4808 -79.3533 242° Southwest 426 490 38,000  Level Washington Center
05:22AM 36.3631 -79.6325 242° Southwest 420 483 38,000  Level Atlanta Center
05:23AM 36.3050 -79.7594 240° Southwest 425 489 38,000  Level Atlanta Center
05:24AM 36.2547 -79.8753 242° Southwest 425 489 38,000  Level Atlanta Center
05:25AM 36.1983 -80.0044 242° Southwest 425 489 38,000  Level Atlanta Center
05:26AM 36.1422 -80.1331 242° Southwest 425 489 38,000  Level Atlanta Center
05:27AM 36.0878 -80.2617 242° Southwest 425 489 38,000  Level Atlanta Center
05:28AM 36.0233 -80.4058 241° Southwest 430 495 38,000  Level Atlanta Center
05:29AM 35.9664 -80.5342 241° Southwest 430 495 38,000  Level Atlanta Center
05:30AM 35.9178 -80.6542 243° Southwest 430 495 38,000  Level Atlanta Center
05:31AM 35.8586 -80.7822 240° Southwest 436 502 38,000  Level Atlanta Center
05:32AM 35.8036 -80.9125 243° Southwest 443 510 38,000  Level Atlanta Center
05:33AM 35.7461 -81.0375 240° Southwest 443 510 38,000  Level Atlanta Center
05:34AM 35.6947 -81.1569 242° Southwest 433 498 38,000  Level Atlanta Center
05:35AM 35.6214 -81.3153 240° Southwest 439 505 38,000  Level Atlanta Center
05:36AM 35.5617 -81.4500 241° Southwest 450 518 38,000  Level Atlanta Center
05:37AM 35.5097 -81.5614 240° Southwest 450 518 38,000  Level Atlanta Center
05:38AM 35.4497 -81.6933 241° Southwest 439 505 38,000  Level Atlanta Center
05:39AM 35.3914 -81.8197 241° Southwest 439 505 38,000  Level Atlanta Center
05:40AM 35.3311 -81.9511 241° Southwest 439 505 38,000  Level Atlanta Center
05:41AM 35.2728 -82.0772 240° Southwest 434 499 38,000 -120 Level Atlanta Center
05:42AM 35.2100 -82.2008 238° Southwest 434 499 37,800 -840 Descending Atlanta Center
05:43AM 35.1283 -82.3272 232° Southwest 434 499 36,400 -1,380 Descending Atlanta Center
05:44AM 35.0486 -82.4431 230° Southwest 442 509 35,100 -1,320 Descending Atlanta Center
05:45AM 34.9686 -82.5636 231° Southwest 456 525 33,800 -1,140 Descending Atlanta Center
05:46AM 34.8867 -82.6842 230° Southwest 462 532 32,900 -900 Descending Atlanta Center
05:47AM 34.8044 -82.8042 230° Southwest 462 532 32,000 -1,080 Descending Atlanta Center
05:48AM 34.7386 -82.9139 234° Southwest 462 532 30,800 -2,160 Descending Atlanta Center
05:49AM 34.6731 -83.0461 239° Southwest 457 526 27,700 -2,220 Descending Atlanta Center
05:50AM 34.6050 -83.1706 236° Southwest 457 526 26,400 -1,380 Descending Atlanta Center
05:51AM 34.5433 -83.2950 239° Southwest 446 513 25,000 -1,800 Descending Atlanta Center
05:52AM 34.4606 -83.4039 227° Southwest 440 506 22,900 -2,400 Descending Atlanta Center
05:53AM 34.3669 -83.5103 223° Southwest 434 499 20,200 -2,640 Descending Atlanta Center
05:54AM 34.2839 -83.6089 224° Southwest 426 490 17,700 -2,520 Descending Atlanta Center
05:55AM 34.2050 -83.7072 226° Southwest 413 475 15,200 -1,920 Descending Atlanta Center
05:57AM 34.0508 -83.8858 224° Southwest 393 452 12,000 -1,680 Descending Atlanta Center
05:57AM 34.0167 -83.9167 217° Southwest 369 425 11,200 -1,380 Descending Atlanta TRACON
05:58AM 33.9333 -83.9833 214° Southwest 352 405 10,000 -1,200 Descending Atlanta TRACON
05:59AM 33.8667 -84.0333 212° Southwest 276 318 8,800 -1,440 Descending Atlanta TRACON
06:00AM 33.8319 -84.0564 209° Southwest 306 352 7,800 -1,860 Descending Atlanta Center
06:01AM 33.7672 -84.1064 213° Southwest 282 325 6,000 -1,380 Descending Atlanta Center
06:01AM 33.7333 -84.1333 213° Southwest 263 303 5,800 -900 Descending Atlanta TRACON
06:02AM 33.6833 -84.1833 220° Southwest 229 264 4,700 -1,140 Descending Atlanta TRACON
06:03AM 33.6500 -84.2333 231° Southwest 191 220 3,600 -1,140 Descending Atlanta TRACON